createdAt,value
2024-05-09T00:00:15.673Z,12.2
2024-05-09T00:01:36.994Z,12.1
2024-05-09T00:02:38.304Z,12.1
2024-05-09T00:04:07.924Z,12.1
2024-05-09T00:05:16.594Z,12.1
2024-05-09T00:06:18.045Z,12.1
2024-05-09T00:07:24.637Z,12.1
2024-05-09T00:08:25.907Z,12.1
2024-05-09T00:10:40.938Z,12
2024-05-09T00:12:59.161Z,12
2024-05-09T00:14:00.436Z,12
2024-05-09T00:15:01.708Z,12
2024-05-09T00:16:02.881Z,11.9
2024-05-09T00:17:04.114Z,11.9
2024-05-09T00:18:05.935Z,11.9
2024-05-09T00:19:09.223Z,11.9
2024-05-09T00:20:14.180Z,11.9
2024-05-09T00:21:41.534Z,11.9
2024-05-09T00:22:42.753Z,11.9
2024-05-09T00:23:44.002Z,11.9
2024-05-09T00:24:45.160Z,11.8
2024-05-09T00:25:46.416Z,11.8
2024-05-09T00:26:47.653Z,11.8
2024-05-09T00:27:48.799Z,11.8
2024-05-09T00:28:50.057Z,11.8
2024-05-09T00:29:51.497Z,11.8
2024-05-09T00:30:52.659Z,11.8
2024-05-09T00:31:53.921Z,11.8
2024-05-09T00:32:55.443Z,11.7
2024-05-09T00:33:57.189Z,11.7
2024-05-09T00:34:59.068Z,11.7
2024-05-09T00:36:00.341Z,11.7
2024-05-09T00:37:01.489Z,11.7
2024-05-09T00:38:02.763Z,11.7
2024-05-09T00:39:05.283Z,11.7
2024-05-09T00:40:07.582Z,11.7
2024-05-09T00:41:36.169Z,11.6
2024-05-09T00:42:37.611Z,11.6
2024-05-09T00:43:38.778Z,11.6
2024-05-09T00:44:39.956Z,11.6
2024-05-09T00:45:41.127Z,11.6
2024-05-09T00:46:42.285Z,11.6
2024-05-09T00:47:43.672Z,11.6
2024-05-09T00:48:45.275Z,11.6
2024-05-09T00:49:46.826Z,11.6
2024-05-09T00:50:48.376Z,11.5
2024-05-09T00:51:49.684Z,11.5
2024-05-09T00:52:50.997Z,11.5
2024-05-09T00:53:52.315Z,11.5
2024-05-09T00:54:56.288Z,11.5
2024-05-09T00:55:57.494Z,11.5
2024-05-09T00:56:58.699Z,11.5
2024-05-09T00:57:59.873Z,11.5
2024-05-09T00:59:01.046Z,11.5
2024-05-09T01:00:02.900Z,11.5
2024-05-09T01:01:15.228Z,11.4
2024-05-09T01:02:16.493Z,11.4
2024-05-09T01:03:18.191Z,11.4
2024-05-09T01:04:20.893Z,11.4
2024-05-09T01:05:22.149Z,11.4
2024-05-09T01:06:23.509Z,11.4
2024-05-09T01:07:24.649Z,11.4
2024-05-09T01:08:25.827Z,11.4
2024-05-09T01:09:27.086Z,11.4
2024-05-09T01:10:32.169Z,11.3
2024-05-09T01:11:37.583Z,11.3
2024-05-09T01:12:39.109Z,11.3
2024-05-09T01:13:40.416Z,11.3
2024-05-09T01:14:41.551Z,11.3
2024-05-09T01:15:42.733Z,11.3
2024-05-09T01:16:43.991Z,11.3
2024-05-09T01:17:45.435Z,11.3
2024-05-09T01:18:47.335Z,11.2
2024-05-09T01:19:48.826Z,11.2
2024-05-09T01:20:50.154Z,11.2
2024-05-09T01:21:51.390Z,11.2
2024-05-09T01:22:52.540Z,11.2
2024-05-09T01:23:53.804Z,11.2
2024-05-09T01:24:54.971Z,11.2
2024-05-09T01:25:56.159Z,11.2
2024-05-09T01:26:57.324Z,11.2
2024-05-09T01:27:58.470Z,11.2
2024-05-09T01:28:59.675Z,11.1
2024-05-09T01:30:00.878Z,11.1
2024-05-09T01:31:02.084Z,11.1
2024-05-09T01:32:06.031Z,11.1
2024-05-09T01:33:08.537Z,11.1
2024-05-09T01:34:14.106Z,11.1
2024-05-09T01:35:15.347Z,11.1
2024-05-09T01:36:16.512Z,11.1
2024-05-09T01:37:17.697Z,11.1
2024-05-09T01:38:18.908Z,11
2024-05-09T01:39:20.065Z,11
2024-05-09T01:40:24.892Z,11
2024-05-09T01:41:40.876Z,11
2024-05-09T01:42:42.004Z,11
2024-05-09T01:43:43.196Z,11
2024-05-09T01:44:44.403Z,11
2024-05-09T01:45:45.571Z,11
2024-05-09T01:46:46.777Z,10.9
2024-05-09T01:47:48.148Z,10.9
2024-05-09T01:48:49.837Z,10.9
2024-05-09T01:49:51.355Z,10.9
2024-05-09T01:50:52.648Z,10.9
2024-05-09T01:51:53.951Z,10.9
2024-05-09T01:52:55.120Z,10.9
2024-05-09T01:53:56.330Z,10.9
2024-05-09T01:54:57.508Z,10.9
2024-05-09T01:56:01.180Z,10.9
2024-05-09T01:57:03.028Z,10.9
2024-05-09T01:58:04.246Z,10.8
2024-05-09T01:59:05.565Z,10.8
2024-05-09T02:00:07.815Z,10.8
2024-05-09T02:01:16.171Z,10.8
2024-05-09T02:02:17.695Z,10.8
2024-05-09T02:03:19.458Z,10.8
2024-05-09T02:04:21.282Z,10.8
2024-05-09T02:05:22.975Z,10.8
2024-05-09T02:06:24.495Z,10.7
2024-05-09T02:07:25.665Z,10.7
2024-05-09T02:08:26.872Z,10.7
2024-05-09T02:09:28.023Z,10.7
2024-05-09T02:10:32.003Z,10.7
2024-05-09T02:11:34.633Z,10.7
2024-05-09T02:12:36.302Z,10.7
2024-05-09T02:13:37.485Z,10.7
2024-05-09T02:14:38.691Z,10.7
2024-05-09T02:15:39.886Z,10.7
2024-05-09T02:16:41.056Z,10.7
2024-05-09T02:17:42.450Z,10.6
2024-05-09T02:18:44.571Z,10.6
2024-05-09T02:19:48.653Z,10.6
2024-05-09T02:20:49.983Z,10.6
2024-05-09T02:21:51.134Z,10.6
2024-05-09T02:22:52.342Z,10.6
2024-05-09T02:23:53.647Z,10.6
2024-05-09T02:24:54.813Z,10.6
2024-05-09T02:25:56.026Z,10.6
2024-05-09T02:26:57.264Z,10.6
2024-05-09T02:27:58.429Z,10.6
2024-05-09T02:29:00.003Z,10.5
2024-05-09T02:30:06.128Z,10.5
2024-05-09T02:31:36.374Z,10.5
2024-05-09T02:32:37.600Z,10.5
2024-05-09T02:33:39.408Z,10.5
2024-05-09T02:34:41.171Z,10.5
2024-05-09T02:35:42.705Z,10.5
2024-05-09T02:36:45.322Z,10.5
2024-05-09T02:37:46.531Z,10.5
2024-05-09T02:38:47.698Z,10.4
2024-05-09T02:39:48.869Z,10.4
2024-05-09T02:40:50.056Z,10.4
2024-05-09T02:41:51.248Z,10.4
2024-05-09T02:42:52.416Z,10.4
2024-05-09T02:43:53.675Z,10.4
2024-05-09T02:44:54.851Z,10.4
2024-05-09T02:45:56.006Z,10.4
2024-05-09T02:46:57.202Z,10.3
2024-05-09T02:47:58.787Z,10.3
2024-05-09T02:49:01.745Z,10.3
2024-05-09T02:50:04.546Z,10.3
2024-05-09T02:51:11.154Z,10.3
2024-05-09T02:52:12.607Z,10.3
2024-05-09T02:53:14.309Z,10.3
2024-05-09T02:54:15.983Z,10.3
2024-05-09T02:55:17.110Z,10.2
2024-05-09T02:56:18.354Z,10.2
2024-05-09T02:57:19.684Z,10.2
2024-05-09T02:58:20.857Z,10.2
2024-05-09T02:59:22.554Z,10.2
2024-05-09T03:00:26.838Z,10.2
2024-05-09T03:01:43.545Z,10.2
2024-05-09T03:02:45.173Z,10.2
2024-05-09T03:03:46.857Z,10.2
2024-05-09T03:04:48.774Z,10.2
2024-05-09T03:05:50.280Z,10.1
2024-05-09T03:06:51.618Z,10.1
2024-05-09T03:07:52.794Z,10.1
2024-05-09T03:08:53.954Z,10.1
2024-05-09T03:09:55.134Z,10.1
2024-05-09T03:10:56.339Z,10.1
2024-05-09T03:11:57.618Z,10.1
2024-05-09T03:12:59.039Z,10.1
2024-05-09T03:14:00.241Z,10
2024-05-09T03:15:01.542Z,10
2024-05-09T03:16:02.789Z,10
2024-05-09T03:17:04.024Z,10
2024-05-09T03:18:05.610Z,10
2024-05-09T03:19:08.231Z,10
2024-05-09T03:20:14.508Z,10
2024-05-09T03:21:33.668Z,10
2024-05-09T03:22:34.993Z,10
2024-05-09T03:23:36.153Z,10
2024-05-09T03:24:37.457Z,9.9
2024-05-09T03:25:38.892Z,9.9
2024-05-09T03:26:40.163Z,9.9
2024-05-09T03:27:41.362Z,9.9
2024-05-09T03:28:42.554Z,9.9
2024-05-09T03:29:43.799Z,9.9
2024-05-09T03:30:44.960Z,9.9
2024-05-09T03:31:46.232Z,9.9
2024-05-09T03:32:47.741Z,9.9
2024-05-09T03:33:49.731Z,9.9
2024-05-09T03:34:51.323Z,9.9
2024-05-09T03:35:52.459Z,9.9
2024-05-09T03:36:53.612Z,9.9
2024-05-09T03:37:54.823Z,9.9
2024-05-09T03:38:55.978Z,9.8
2024-05-09T03:39:57.138Z,9.8
2024-05-09T03:40:58.320Z,9.8
2024-05-09T03:41:59.569Z,9.8
2024-05-09T03:43:00.689Z,9.8
2024-05-09T03:44:01.926Z,9.8
2024-05-09T03:45:03.114Z,9.8
2024-05-09T03:46:04.290Z,9.8
2024-05-09T03:47:05.494Z,9.8
2024-05-09T03:48:07.217Z,9.8
2024-05-09T03:49:09.398Z,9.8
2024-05-09T03:50:17.728Z,9.8
2024-05-09T03:51:36.425Z,9.8
2024-05-09T03:52:37.589Z,9.8
2024-05-09T03:53:38.757Z,9.8
2024-05-09T03:54:40.409Z,9.8
2024-05-09T03:55:41.574Z,9.8
2024-05-09T03:56:42.776Z,9.8
2024-05-09T03:57:43.968Z,9.8
2024-05-09T03:58:45.165Z,9.8
2024-05-09T03:59:46.409Z,9.8
2024-05-09T04:00:47.727Z,9.8
2024-05-09T04:01:49.589Z,9.8
2024-05-09T04:02:51.098Z,9.7
2024-05-09T04:03:52.671Z,9.8
2024-05-09T04:04:54.261Z,9.7
2024-05-09T04:05:55.651Z,9.7
2024-05-09T04:06:56.810Z,9.8
2024-05-09T04:07:57.965Z,9.8
2024-05-09T04:08:59.358Z,9.8
2024-05-09T04:10:00.525Z,9.8
2024-05-09T04:11:01.769Z,9.8
2024-05-09T04:12:03.328Z,9.8
2024-05-09T04:13:04.809Z,9.8
2024-05-09T04:14:06.362Z,9.8
2024-05-09T04:15:10.383Z,9.8
2024-05-09T04:16:14.441Z,9.8
2024-05-09T04:17:15.954Z,9.8
2024-05-09T04:18:17.254Z,9.8
2024-05-09T04:19:18.626Z,9.8
2024-05-09T04:20:24.491Z,9.8
2024-05-09T04:21:41.892Z,9.8
2024-05-09T04:22:43.052Z,9.8
2024-05-09T04:23:44.295Z,9.8
2024-05-09T04:24:45.452Z,9.8
2024-05-09T04:25:46.643Z,9.8
2024-05-09T04:26:47.992Z,9.8
2024-05-09T04:27:49.183Z,9.8
2024-05-09T04:28:50.350Z,9.8
2024-05-09T04:29:51.818Z,9.8
2024-05-09T04:30:52.998Z,9.8
2024-05-09T04:31:54.224Z,9.8
2024-05-09T04:32:55.993Z,9.8
2024-05-09T04:33:57.517Z,9.8
2024-05-09T04:34:59.159Z,9.8
2024-05-09T04:36:00.365Z,9.8
2024-05-09T04:37:01.520Z,9.8
2024-05-09T04:38:02.817Z,9.8
2024-05-09T04:39:04.228Z,9.8
2024-05-09T04:40:06.948Z,9.9
2024-05-09T04:41:31.862Z,9.9
2024-05-09T04:42:33.347Z,9.9
2024-05-09T04:43:34.485Z,9.9
2024-05-09T04:44:35.675Z,9.9
2024-05-09T04:45:36.884Z,9.9
2024-05-09T04:46:38.046Z,9.9
2024-05-09T04:47:39.334Z,9.9
2024-05-09T04:48:40.969Z,9.9
2024-05-09T04:49:42.516Z,9.9
2024-05-09T04:50:43.744Z,9.9
2024-05-09T04:51:45.181Z,9.9
2024-05-09T04:52:46.361Z,9.9
2024-05-09T04:53:47.717Z,10
2024-05-09T04:54:48.932Z,10
2024-05-09T04:55:50.188Z,10
2024-05-09T04:56:51.345Z,10
2024-05-09T04:57:52.511Z,10
2024-05-09T04:58:53.711Z,10
2024-05-09T04:59:54.919Z,10
2024-05-09T05:00:56.175Z,10
2024-05-09T05:01:57.503Z,10
2024-05-09T05:02:58.998Z,10
2024-05-09T05:04:00.992Z,10
2024-05-09T05:05:02.958Z,10
2024-05-09T05:06:04.662Z,10.1
2024-05-09T05:07:05.858Z,10.1
2024-05-09T05:08:07.066Z,10.1
2024-05-09T05:09:08.250Z,10.1
2024-05-09T05:10:11.897Z,10.1
2024-05-09T05:11:35.734Z,10.1
2024-05-09T05:12:37.103Z,10.1
2024-05-09T05:13:40.874Z,10.1
2024-05-09T05:14:42.884Z,10.1
2024-05-09T05:15:44.249Z,10.1
2024-05-09T05:16:48.314Z,10.2
2024-05-09T05:17:49.910Z,10.2
2024-05-09T05:18:51.816Z,10.2
2024-05-09T05:19:53.408Z,10.2
2024-05-09T05:20:55.157Z,10.2
2024-05-09T05:21:56.918Z,10.2
2024-05-09T05:22:58.092Z,10.2
2024-05-09T05:23:59.264Z,10.2
2024-05-09T05:25:00.458Z,10.3
2024-05-09T05:26:01.625Z,10.3
2024-05-09T05:27:02.830Z,10.3
2024-05-09T05:28:03.990Z,10.3
2024-05-09T05:29:05.178Z,10.3
2024-05-09T05:30:09.539Z,10.3
2024-05-09T05:31:29.681Z,10.3
2024-05-09T05:32:31.015Z,10.4
2024-05-09T05:33:32.823Z,10.4
2024-05-09T05:34:34.247Z,10.4
2024-05-09T05:35:35.481Z,10.4
2024-05-09T05:36:36.726Z,10.4
2024-05-09T05:37:37.898Z,10.5
2024-05-09T05:38:39.095Z,10.5
2024-05-09T05:39:40.288Z,10.5
2024-05-09T05:40:41.572Z,10.5
2024-05-09T05:41:42.728Z,10.5
2024-05-09T05:42:43.966Z,10.5
2024-05-09T05:43:45.177Z,10.6
2024-05-09T05:44:46.462Z,10.6
2024-05-09T05:45:47.663Z,10.6
2024-05-09T05:46:48.829Z,10.6
2024-05-09T05:47:50.222Z,10.6
2024-05-09T05:48:52.082Z,10.6
2024-05-09T05:49:53.558Z,10.7
2024-05-09T05:50:54.784Z,10.7
2024-05-09T05:51:56.111Z,10.7
2024-05-09T05:52:57.309Z,10.7
2024-05-09T05:53:58.496Z,10.7
2024-05-09T05:54:59.667Z,10.8
2024-05-09T05:56:00.878Z,10.8
2024-05-09T05:57:02.318Z,10.8
2024-05-09T05:58:03.526Z,10.8
2024-05-09T05:59:04.780Z,10.9
2024-05-09T06:00:09.355Z,10.9
2024-05-09T06:01:29.755Z,10.9
2024-05-09T06:02:31.097Z,10.9
2024-05-09T06:03:32.553Z,11
2024-05-09T06:04:34.161Z,11
2024-05-09T06:05:35.540Z,11
2024-05-09T06:06:37.067Z,11
2024-05-09T06:07:38.209Z,11.1
2024-05-09T06:08:39.518Z,11.1
2024-05-09T06:09:45.333Z,11.1
2024-05-09T06:10:51.069Z,11.2
2024-05-09T06:11:52.604Z,11.2
2024-05-09T06:12:54.084Z,11.2
2024-05-09T06:13:55.279Z,11.2
2024-05-09T06:14:56.517Z,11.3
2024-05-09T06:17:18.544Z,11.3
2024-05-09T06:21:12.340Z,11.4
2024-05-09T06:22:22.293Z,11.5
2024-05-09T06:23:37.221Z,11.5
2024-05-09T06:24:45.334Z,11.6
2024-05-09T06:28:07.915Z,11.7
2024-05-09T06:29:09.099Z,11.7
2024-05-09T06:30:21.324Z,11.8
2024-05-09T06:31:46.188Z,11.8
2024-05-09T06:32:55.918Z,11.9
2024-05-09T06:59:00.968Z,13.5
2024-05-09T07:00:48.478Z,13.7
2024-05-09T07:02:09.157Z,13.8
2024-05-09T07:03:11.532Z,13.9
2024-05-09T07:18:27.966Z,16.2
2024-05-09T08:02:55.928Z,25.4
2024-05-09T08:05:06.075Z,25.8
2024-05-09T08:06:55.611Z,26.2
2024-05-09T08:47:59.185Z,28.4
2024-05-09T08:49:09.736Z,28.5
2024-05-09T08:51:45.272Z,28.6
2024-05-09T08:52:46.575Z,28.6
2024-05-09T08:53:53.620Z,28.7
2024-05-09T08:54:54.842Z,28.7
2024-05-09T08:55:59.160Z,28.7
2024-05-09T08:57:05.236Z,28.7
2024-05-09T08:59:35.106Z,28.8
2024-05-09T09:00:54.027Z,28.9
2024-05-09T09:02:41.974Z,29
2024-05-09T09:05:06.150Z,29.2
2024-05-09T09:06:08.066Z,29.2
2024-05-09T09:07:09.337Z,29.3
2024-05-09T09:08:10.823Z,29.4
2024-05-09T09:10:36.790Z,29.5
2024-05-09T09:11:48.427Z,29.6
2024-05-09T09:31:38.782Z,30.8
2024-05-09T09:38:34.840Z,31.1
2024-05-09T09:41:35.121Z,31.2
2024-05-09T09:42:46.458Z,31.3
2024-05-09T09:45:42.954Z,31.4
2024-05-09T09:46:54.668Z,31.5
2024-05-09T09:47:58.853Z,31.5
2024-05-09T09:49:00.479Z,31.6
2024-05-09T09:50:09.372Z,31.6
2024-05-09T09:51:33.850Z,31.7
2024-05-09T09:52:37.884Z,31.7
2024-05-09T09:53:39.082Z,31.8
2024-05-09T09:54:45.099Z,31.9
2024-05-09T09:55:52.379Z,32
2024-05-09T09:56:56.395Z,32.1
2024-05-09T09:57:58.486Z,32.2
2024-05-09T09:59:11.160Z,32.2
2024-05-09T10:00:27.504Z,32.3
2024-05-09T10:01:38.303Z,32.4
2024-05-09T10:02:39.730Z,32.4
2024-05-09T10:03:44.243Z,32.4
2024-05-09T10:04:48.742Z,32.5
2024-05-09T10:05:52.958Z,32.5
2024-05-09T10:06:54.248Z,32.5
2024-05-09T10:07:56.482Z,32.5
2024-05-09T10:27:47.711Z,32.8
2024-05-09T10:46:18.702Z,33.4
2024-05-09T10:47:21.204Z,33.4
2024-05-09T10:48:36.194Z,33.4
2024-05-09T10:49:40.596Z,33.4
2024-05-09T10:53:14.168Z,33.5
2024-05-09T10:54:22.328Z,33.5
2024-05-09T10:55:31.794Z,33.5
2024-05-09T10:56:35.899Z,33.5
2024-05-09T10:58:00.760Z,33.6
2024-05-09T11:02:53.951Z,33.8
2024-05-09T11:04:07.036Z,33.8
2024-05-09T11:05:13.379Z,33.9
2024-05-09T11:07:47.655Z,34
2024-05-09T11:09:04.693Z,34.1
2024-05-09T11:49:57.276Z,32.5
2024-05-09T11:51:12.386Z,32.6
2024-05-09T11:52:27.213Z,32.7
2024-05-09T11:53:33.442Z,32.8
2024-05-09T11:55:45.632Z,33
2024-05-09T11:58:38.409Z,33.2
2024-05-09T11:59:49.255Z,33.4
2024-05-09T12:00:58.756Z,33.4
2024-05-09T12:02:15.606Z,33.4
2024-05-09T12:04:33.611Z,32.7
2024-05-09T12:05:55.542Z,32.8
2024-05-09T12:06:59.674Z,32.6
2024-05-09T12:08:26.935Z,32.3
2024-05-09T12:09:39.603Z,32.6
2024-05-09T12:10:46.421Z,32.4
2024-05-09T12:11:51.172Z,32
2024-05-09T12:51:36.732Z,31.1
2024-05-09T12:52:43.917Z,31.1
2024-05-09T12:53:53.326Z,30.8
2024-05-09T12:55:02.164Z,30.8
2024-05-09T12:56:21.083Z,30.9
2024-05-09T12:57:41.061Z,31.1
2024-05-09T12:58:47.645Z,31.1
2024-05-09T12:59:51.842Z,31.2
2024-05-09T13:00:56.060Z,31.3
2024-05-09T13:02:02.926Z,31.3
2024-05-09T13:43:28.421Z,30.2
2024-05-09T13:44:46.448Z,30
2024-05-09T13:45:56.507Z,29.8
2024-05-09T13:47:02.795Z,29.5
2024-05-09T13:48:10.413Z,29.4
2024-05-09T13:50:47.041Z,29
2024-05-09T13:52:09.151Z,28.9
2024-05-09T13:53:17.693Z,28.9
2024-05-09T13:55:04.288Z,28.7
2024-05-09T14:36:35.060Z,26.8
2024-05-09T14:37:46.904Z,26.6
2024-05-09T14:38:48.031Z,26.5
2024-05-09T14:39:54.704Z,26.4
2024-05-09T14:40:56.069Z,26.3
2024-05-09T14:41:59.891Z,26.2
2024-05-09T14:43:09.416Z,26.1
2024-05-09T14:44:14.093Z,26.1
2024-05-09T14:48:43.090Z,26.2
2024-05-09T15:30:56.332Z,25
2024-05-09T15:32:00.123Z,25
2024-05-09T15:33:04.606Z,25
2024-05-09T15:34:08.741Z,25
2024-05-09T15:35:12.210Z,24.9
2024-05-09T15:36:13.345Z,24.9
2024-05-09T15:37:14.515Z,24.9
2024-05-09T15:38:15.802Z,24.9
2024-05-09T15:39:20.021Z,24.8
2024-05-09T15:40:31.551Z,24.8
2024-05-09T15:41:41.920Z,24.8
2024-05-09T15:42:45.946Z,24.7
2024-05-09T15:43:49.616Z,24.6
2024-05-09T15:44:50.744Z,24.6
2024-05-09T15:45:51.987Z,24.6
2024-05-09T15:46:55.987Z,24.5
2024-05-09T15:48:00.271Z,24.5
2024-05-09T15:49:07.992Z,24.5
2024-05-09T15:50:20.072Z,24.4
2024-05-09T15:51:41.681Z,24.4
2024-05-09T15:52:43.034Z,24.4
2024-05-09T15:53:44.216Z,24.3
2024-05-09T15:54:48.128Z,24.3
2024-05-09T15:55:49.374Z,24.2
2024-05-09T15:56:50.604Z,24.2
2024-05-09T15:57:51.999Z,24.1
2024-05-09T15:58:55.810Z,24
2024-05-09T15:59:56.978Z,24
2024-05-09T16:01:01.344Z,24
2024-05-09T16:02:08.726Z,24
2024-05-09T16:04:31.529Z,24
2024-05-09T16:05:33.249Z,24
2024-05-09T16:06:48.775Z,24.1
2024-05-09T16:07:59.354Z,24.1
2024-05-09T16:09:08.119Z,24.1
2024-05-09T16:10:32.174Z,24.1
2024-05-09T16:11:36.716Z,24.1
2024-05-09T16:12:40.531Z,24.1
2024-05-09T16:13:44.410Z,24.1
2024-05-09T16:14:45.648Z,24.1
2024-05-09T16:15:47.114Z,24.1
2024-05-09T16:16:51.942Z,24.1
2024-05-09T16:18:01.209Z,24.1
2024-05-09T16:19:02.727Z,24.1
2024-05-09T16:20:11.809Z,24.1
2024-05-09T16:21:43.618Z,24.1
2024-05-09T16:22:47.868Z,24
2024-05-09T16:23:49.050Z,24
2024-05-09T16:24:54.448Z,24
2024-05-09T16:26:07.179Z,23.9
2024-05-09T16:27:08.346Z,23.9
2024-05-09T16:28:10.525Z,23.9
2024-05-09T16:29:17.741Z,23.8
2024-05-09T16:30:24.791Z,23.8
2024-05-09T16:31:37.379Z,23.8
2024-05-09T16:34:02.168Z,23.8
2024-05-09T16:35:12.158Z,23.7
2024-05-09T16:36:13.299Z,23.7
2024-05-09T16:37:14.574Z,23.7
2024-05-09T16:38:15.928Z,23.7
2024-05-09T16:39:17.095Z,23.7
2024-05-09T16:40:21.976Z,23.7
2024-05-09T16:41:41.994Z,23.7
2024-05-09T16:42:43.167Z,23.7
2024-05-09T16:43:44.416Z,23.7
2024-05-09T16:44:45.607Z,23.7
2024-05-09T16:45:46.799Z,23.8
2024-05-09T16:46:48.001Z,23.7
2024-05-09T16:47:49.191Z,23.7
2024-05-09T16:48:50.552Z,23.8
2024-05-09T16:49:51.961Z,23.8
2024-05-09T16:50:53.114Z,23.8
2024-05-09T16:51:54.296Z,23.8
2024-05-09T16:52:55.663Z,23.8
2024-05-09T16:53:56.837Z,23.7
2024-05-09T16:55:01.055Z,23.8
2024-05-09T16:56:05.507Z,23.7
2024-05-09T16:57:09.015Z,23.7
2024-05-09T16:58:10.228Z,23.7
2024-05-09T16:59:11.484Z,23.7
2024-05-09T17:00:17.789Z,23.7
2024-05-09T17:01:45.713Z,23.7
2024-05-09T17:02:47.094Z,23.6
2024-05-09T17:03:48.382Z,23.6
2024-05-09T17:04:50.162Z,23.6
2024-05-09T17:05:54.739Z,23.6
2024-05-09T17:06:56.264Z,23.6
2024-05-09T17:07:59.633Z,23.6
2024-05-09T17:09:05.431Z,23.5
2024-05-09T17:10:26.077Z,23.5
2024-05-09T17:11:38.349Z,23.5
2024-05-09T17:12:42.253Z,23.5
2024-05-09T17:13:45.233Z,23.5
2024-05-09T17:14:49.048Z,23.4
2024-05-09T17:15:50.417Z,23.4
2024-05-09T17:16:52.483Z,23.4
2024-05-09T17:17:56.026Z,23.4
2024-05-09T17:18:57.623Z,23.4
2024-05-09T17:19:58.796Z,23.3
2024-05-09T17:21:02.795Z,23.3
2024-05-09T17:22:03.994Z,23.3
2024-05-09T17:23:07.590Z,23.3
2024-05-09T17:24:17.874Z,23.2
2024-05-09T17:26:30.243Z,23.1
2024-05-09T17:27:34.328Z,23
2024-05-09T17:28:38.270Z,23
2024-05-09T17:29:47.916Z,22.9
2024-05-09T17:30:59.928Z,22.9
2024-05-09T17:32:01.243Z,22.9
2024-05-09T17:33:17.059Z,22.8
2024-05-09T17:34:21.408Z,22.8
2024-05-09T17:35:28.660Z,22.8
2024-05-09T17:36:32.930Z,22.7
2024-05-09T17:37:34.342Z,22.7
2024-05-09T17:38:41.142Z,22.7
2024-05-09T17:39:42.462Z,22.6
2024-05-09T17:40:43.720Z,22.6
2024-05-09T17:41:45.141Z,22.6
2024-05-09T17:42:46.384Z,22.5
2024-05-09T17:43:49.757Z,22.5
2024-05-09T17:44:53.842Z,22.5
2024-05-09T17:45:55.070Z,22.5
2024-05-09T17:46:59.263Z,22.4
2024-05-09T17:48:00.874Z,22.4
2024-05-09T17:49:05.553Z,22.4
2024-05-09T17:50:11.613Z,22.3
2024-05-09T17:51:34.562Z,22.3
2024-05-09T17:52:35.805Z,22.3
2024-05-09T17:53:36.950Z,22.2
2024-05-09T17:54:38.163Z,22.2
2024-05-09T17:55:39.364Z,22.2
2024-05-09T17:56:41.155Z,22.2
2024-05-09T17:57:42.336Z,22.1
2024-05-09T17:58:43.752Z,22.1
2024-05-09T17:59:44.914Z,22.1
2024-05-09T18:00:46.228Z,22.1
2024-05-09T18:01:47.836Z,22.1
2024-05-09T18:02:49.197Z,22
2024-05-09T18:03:50.674Z,22
2024-05-09T18:04:55.014Z,22
2024-05-09T18:05:56.566Z,22
2024-05-09T18:06:58.051Z,21.9
2024-05-09T18:07:59.295Z,21.9
2024-05-09T18:09:00.502Z,21.9
2024-05-09T18:10:01.820Z,21.9
2024-05-09T18:11:03.575Z,21.8
2024-05-09T18:12:04.954Z,21.8
2024-05-09T18:13:06.572Z,21.8
2024-05-09T18:14:08.997Z,21.7
2024-05-09T18:15:10.181Z,21.7
2024-05-09T18:16:16.250Z,21.7
2024-05-09T18:17:17.554Z,21.7
2024-05-09T18:18:18.894Z,21.6
2024-05-09T18:19:23.059Z,21.6
2024-05-09T18:20:31.480Z,21.5
2024-05-09T18:21:46.942Z,21.5
2024-05-09T18:22:48.151Z,21.4
2024-05-09T18:23:49.505Z,21.4
2024-05-09T18:24:50.698Z,21.4
2024-05-09T18:25:54.780Z,21.3
2024-05-09T18:26:55.987Z,21.3
2024-05-09T18:27:57.278Z,21.3
2024-05-09T18:29:01.271Z,21.2
2024-05-09T18:30:02.460Z,21.2
2024-05-09T18:31:21.299Z,21.1
2024-05-09T18:32:22.644Z,21.1
2024-05-09T18:33:24.173Z,21.1
2024-05-09T18:34:26.244Z,21.1
2024-05-09T18:35:30.567Z,21
2024-05-09T18:36:31.837Z,21
2024-05-09T18:37:35.821Z,20.9
2024-05-09T18:38:36.988Z,20.9
2024-05-09T18:39:38.181Z,20.8
2024-05-09T18:40:40.344Z,20.8
2024-05-09T18:41:49.448Z,20.8
2024-05-09T18:42:50.631Z,20.8
2024-05-09T18:43:51.919Z,20.7
2024-05-09T18:44:53.284Z,20.7
2024-05-09T18:45:54.456Z,20.6
2024-05-09T18:46:58.779Z,20.6
2024-05-09T18:48:00.085Z,20.5
2024-05-09T18:49:02.232Z,20.5
2024-05-09T18:50:05.988Z,20.5
2024-05-09T18:51:25.259Z,20.4
2024-05-09T18:52:26.427Z,20.4
2024-05-09T18:53:27.594Z,20.4
2024-05-09T18:54:28.760Z,20.3
2024-05-09T18:55:29.939Z,20.3
2024-05-09T18:56:33.876Z,20.2
2024-05-09T18:57:35.050Z,20.2
2024-05-09T18:58:36.266Z,20.2
2024-05-09T18:59:37.396Z,20.1
2024-05-09T19:00:40.015Z,20.1
2024-05-09T19:01:50.997Z,20
2024-05-09T19:02:52.466Z,20
2024-05-09T19:03:57.535Z,20
2024-05-09T19:04:59.090Z,19.9
2024-05-09T19:06:00.503Z,19.9
2024-05-09T19:07:02.154Z,19.9
2024-05-09T19:08:03.420Z,19.8
2024-05-09T19:09:04.722Z,19.8
2024-05-09T19:10:09.513Z,19.7
2024-05-09T19:11:29.433Z,19.7
2024-05-09T19:12:30.637Z,19.7
2024-05-09T19:13:32.064Z,19.6
2024-05-09T19:14:33.721Z,19.6
2024-05-09T19:15:34.900Z,19.6
2024-05-09T19:16:36.190Z,19.5
2024-05-09T19:17:37.446Z,19.5
2024-05-09T19:18:38.859Z,19.5
2024-05-09T19:19:40.493Z,19.4
2024-05-09T19:20:41.856Z,19.4
2024-05-09T19:21:43.545Z,19.4
2024-05-09T19:22:44.817Z,19.3
2024-05-09T19:23:50.487Z,19.3
2024-05-09T19:24:55.732Z,19.3
2024-05-09T19:27:15.360Z,19.2
2024-05-09T19:28:21.479Z,19.1
2024-05-09T19:29:48.130Z,19.1
2024-05-09T19:30:55.964Z,19.1
2024-05-09T19:32:28.874Z,19
2024-05-09T19:33:30.451Z,19
2024-05-09T19:34:40.192Z,19
2024-05-09T19:35:41.680Z,18.9
2024-05-09T19:36:48.649Z,18.9
2024-05-09T19:37:55.127Z,18.9
2024-05-09T19:38:56.289Z,18.8
2024-05-09T19:39:57.483Z,18.8
2024-05-09T19:40:58.692Z,18.8
2024-05-09T19:41:59.883Z,18.7
2024-05-09T19:43:01.414Z,18.7
2024-05-09T19:44:05.568Z,18.7
2024-05-09T19:45:06.738Z,18.6
2024-05-09T19:46:07.981Z,18.6
2024-05-09T19:47:09.302Z,18.6
2024-05-09T19:48:13.025Z,18.5
2024-05-09T19:49:14.485Z,18.5
2024-05-09T19:50:19.472Z,18.5
2024-05-09T19:51:44.150Z,18.4
2024-05-09T19:52:45.368Z,18.4
2024-05-09T19:53:46.574Z,18.4
2024-05-09T19:54:47.754Z,18.4
2024-05-09T19:55:48.905Z,18.3
2024-05-09T19:56:50.089Z,18.3
2024-05-09T19:57:54.421Z,18.3
2024-05-09T19:58:55.771Z,18.2
2024-05-09T19:59:56.919Z,18.2
2024-05-09T20:00:58.216Z,18.2
2024-05-09T20:01:59.717Z,18.1
2024-05-09T20:03:01.447Z,18.1
2024-05-09T20:04:03.488Z,18.1
2024-05-09T20:05:05.526Z,18
2024-05-09T20:06:07.604Z,18
2024-05-09T20:07:08.891Z,18
2024-05-09T20:08:10.551Z,18
2024-05-09T20:09:11.715Z,17.9
2024-05-09T20:10:16.579Z,17.9
2024-05-09T20:11:36.344Z,17.9
2024-05-09T20:12:37.885Z,17.9
2024-05-09T20:13:39.107Z,17.8
2024-05-09T20:14:40.319Z,17.8
2024-05-09T20:15:41.494Z,17.8
2024-05-09T20:16:42.840Z,17.7
2024-05-09T20:17:44.164Z,17.7
2024-05-09T20:18:45.553Z,17.7
2024-05-09T20:19:50.265Z,17.6
2024-05-09T20:20:53.880Z,17.6
2024-05-09T20:21:55.689Z,17.6
2024-05-09T20:22:56.922Z,17.6
2024-05-09T20:23:58.077Z,17.5
2024-05-09T20:25:01.799Z,17.5
2024-05-09T20:26:05.896Z,17.5
2024-05-09T20:27:09.897Z,17.5
2024-05-09T20:28:11.447Z,17.4
2024-05-09T20:29:12.885Z,17.4
2024-05-09T20:30:14.780Z,17.4
2024-05-09T20:31:34.620Z,17.3
2024-05-09T20:32:38.388Z,17.3
2024-05-09T20:33:43.183Z,17.3
2024-05-09T20:34:44.528Z,17.3
2024-05-09T20:35:45.700Z,17.2
2024-05-09T20:36:46.903Z,17.2
2024-05-09T20:37:48.092Z,17.2
2024-05-09T20:38:52.059Z,17.2
2024-05-09T20:39:53.228Z,17.1
2024-05-09T20:40:57.152Z,17.1
2024-05-09T20:41:58.401Z,17.1
2024-05-09T20:42:59.643Z,17
2024-05-09T20:44:04.330Z,17
2024-05-09T20:45:08.581Z,17
2024-05-09T20:46:12.675Z,17
2024-05-09T20:47:13.850Z,16.9
2024-05-09T20:48:15.072Z,16.9
2024-05-09T20:49:17.208Z,16.9
2024-05-09T20:50:23.684Z,16.8
2024-05-09T20:51:45.532Z,16.8
2024-05-09T20:52:46.743Z,16.8
2024-05-09T20:53:47.938Z,16.7
2024-05-09T20:54:52.135Z,16.7
2024-05-09T20:55:56.264Z,16.7
2024-05-09T20:56:57.433Z,16.7
2024-05-09T20:57:58.768Z,16.6
2024-05-09T20:59:00.170Z,16.6
2024-05-09T21:00:01.382Z,16.6
2024-05-09T21:01:03.772Z,16.6
2024-05-09T21:02:05.344Z,16.5
2024-05-09T21:03:09.840Z,16.5
2024-05-09T21:04:16.717Z,16.5
2024-05-09T21:05:18.654Z,16.4
2024-05-09T21:06:48.434Z,16.4
2024-05-09T21:07:52.803Z,16.4
2024-05-09T21:08:57.021Z,16.3
2024-05-09T21:10:04.683Z,16.3
2024-05-09T21:11:25.290Z,16.3
2024-05-09T21:12:29.742Z,16.3
2024-05-09T21:13:31.082Z,16.2
2024-05-09T21:14:34.605Z,16.2
2024-05-09T21:15:46.318Z,16.2
2024-05-09T21:16:53.017Z,16.2
2024-05-09T21:17:54.847Z,16.2
2024-05-09T21:18:56.366Z,16.1
2024-05-09T21:20:00.274Z,16.1
2024-05-09T21:21:10.870Z,16.1
2024-05-09T21:22:12.224Z,16.1
2024-05-09T21:23:13.488Z,16.1
2024-05-09T21:24:17.035Z,16
2024-05-09T21:25:20.395Z,16
2024-05-09T21:26:41.524Z,16
2024-05-09T21:27:47.726Z,16
2024-05-09T21:29:00.295Z,15.9